Portada
METAR-TAF:

METAR-TAF

Aeroports :

Abu Dhabi, Emirats Àrabs Units

latitud: 24-26N, longitud: 054-28E, altitud: 5 m

Observació

L'informe es va fer fa 30 minuts, a les 11:00 UTC
Vent 6 kt del Sud-Est, variant entre Est i Sud
Temperatura 31°C
Humitat 31%
Pressió 1014 hPa
Visibilitat 10 km o més
Núvols disperses a una alçada de 3500 ft

METAR: OMAD 181100Z 13006KT 080V190 9999 SCT035 31/12 Q1014 BECMG 36006KT

Hora: 15:30 (11:30 UTC)

Pronòstic

L'informe es va fer fa 6 hores i 30 minuts, a les 05:00 UTC
Pronòstic vàlid del 18 a les 06 UTC al 19 a les 12 UTC
Vent 10 kt del Sud-Est
Visibilitat: 8000 m
Evolucionant progressivament
l' 18 a les 11 UTC al 18 a les 13 UTC
Vent 8 kt del Nord
Evolucionant progressivament
l' 18 a les 19 UTC al 18 a les 21 UTC
Vent 5 kt del Est
Evolucionant progressivament
l' 19 a les 03 UTC al 19 a les 05 UTC
Vent 12 kt del Sud

TAF: OMAD 180500Z 1806/1912 14010KT 8000 NSC BECMG 1811/1813 36008KT BECMG 1819/1821 10005KT BECMG 1903/1905 18012KT

Observacions i pronòstics meteorològics de més de 4000 aeroports (METAR i TAF).

Les estacions disponibles són els punts grocs i vermells al mapa.

Posi el ratolí al punt desitjat per veure el nom de l'estació.

Feu clic per veure les observacions i els pronòstics meteorològics.

Per canviar el mapa: feu clic els botons verds amb una creu de color negre per apropar; al botó verd amb un guió per allunyar la imatge; o en les fletxes verdes per a mapes adjacents.


METAR-TAF: